sensor_id;sensor_type;location;lat;lon;timestamp;temperature;humidity
18191;DHT22;47004;51.366;12.348;2024-01-16T00:00:17;0.80;99.90
18191;DHT22;47004;51.366;12.348;2024-01-16T00:02:20;0.70;99.90
18191;DHT22;47004;51.366;12.348;2024-01-16T00:04:21;0.70;99.90
18191;DHT22;47004;51.366;12.348;2024-01-16T00:06:23;0.70;99.90
18191;DHT22;47004;51.366;12.348;2024-01-16T00:08:27;0.70;99.90
18191;DHT22;47004;51.366;12.348;2024-01-16T00:10:28;0.70;99.90
18191;DHT22;47004;51.366;12.348;2024-01-16T00:12:30;0.70;99.90
18191;DHT22;47004;51.366;12.348;2024-01-16T00:14:36;0.70;99.90
18191;DHT22;47004;51.366;12.348;2024-01-16T00:16:42;0.70;99.90
18191;DHT22;47004;51.366;12.348;2024-01-16T00:18:44;0.70;99.90
18191;DHT22;47004;51.366;12.348;2024-01-16T00:20:46;0.70;99.90
18191;DHT22;47004;51.366;12.348;2024-01-16T00:22:47;0.60;99.90
18191;DHT22;47004;51.366;12.348;2024-01-16T00:24:49;0.70;99.90
18191;DHT22;47004;51.366;12.348;2024-01-16T00:26:50;0.70;99.90
18191;DHT22;47004;51.366;12.348;2024-01-16T00:28:52;0.70;99.90
18191;DHT22;47004;51.366;12.348;2024-01-16T00:30:55;0.70;99.90
18191;DHT22;47004;51.366;12.348;2024-01-16T00:32:56;0.70;99.90
18191;DHT22;47004;51.366;12.348;2024-01-16T00:34:58;0.80;99.90
18191;DHT22;47004;51.366;12.348;2024-01-16T00:37:00;0.70;99.90
18191;DHT22;47004;51.366;12.348;2024-01-16T00:39:01;0.70;99.90
18191;DHT22;47004;51.366;12.348;2024-01-16T00:41:04;0.70;99.90
18191;DHT22;47004;51.366;12.348;2024-01-16T00:43:07;0.80;99.90
18191;DHT22;47004;51.366;12.348;2024-01-16T00:45:09;0.80;99.90
18191;DHT22;47004;51.366;12.348;2024-01-16T00:47:12;0.80;99.90
18191;DHT22;47004;51.366;12.348;2024-01-16T00:49:13;0.80;99.90
18191;DHT22;47004;51.366;12.348;2024-01-16T00:51:15;0.80;99.90
18191;DHT22;47004;51.366;12.348;2024-01-16T00:53:16;0.70;99.90
18191;DHT22;47004;51.366;12.348;2024-01-16T00:55:18;0.80;99.90
18191;DHT22;47004;51.366;12.348;2024-01-16T00:57:20;0.80;99.90
18191;DHT22;47004;51.366;12.348;2024-01-16T00:59:22;0.80;99.90
18191;DHT22;47004;51.366;12.348;2024-01-16T01:01:24;0.80;99.90
18191;DHT22;47004;51.366;12.348;2024-01-16T01:03:27;0.90;99.90
18191;DHT22;47004;51.366;12.348;2024-01-16T01:05:28;0.80;99.90
18191;DHT22;47004;51.366;12.348;2024-01-16T01:07:30;0.90;99.90
18191;DHT22;47004;51.366;12.348;2024-01-16T01:09:33;0.80;99.90
18191;DHT22;47004;51.366;12.348;2024-01-16T01:11:34;0.80;99.90
18191;DHT22;47004;51.366;12.348;2024-01-16T01:13:35;0.90;99.90
18191;DHT22;47004;51.366;12.348;2024-01-16T01:15:40;1.00;99.90
18191;DHT22;47004;51.366;12.348;2024-01-16T01:17:42;0.90;99.90
18191;DHT22;47004;51.366;12.348;2024-01-16T01:19:45;0.90;99.90
18191;DHT22;47004;51.366;12.348;2024-01-16T01:21:47;0.90;99.90
18191;DHT22;47004;51.366;12.348;2024-01-16T01:23:50;1.20;99.90
18191;DHT22;47004;51.366;12.348;2024-01-16T01:25:52;0.90;99.90
18191;DHT22;47004;51.366;12.348;2024-01-16T01:27:54;0.90;99.90
18191;DHT22;47004;51.366;12.348;2024-01-16T01:29:56;1.20;99.90
18191;DHT22;47004;51.366;12.348;2024-01-16T01:31:58;1.30;99.90
18191;DHT22;47004;51.366;12.348;2024-01-16T01:33:59;0.90;99.90
18191;DHT22;47004;51.366;12.348;2024-01-16T01:36:02;0.90;99.90
18191;DHT22;47004;51.366;12.348;2024-01-16T01:38:04;0.90;99.90
18191;DHT22;47004;51.366;12.348;2024-01-16T01:40:11;0.90;99.90
18191;DHT22;47004;51.366;12.348;2024-01-16T01:42:16;0.90;99.90
18191;DHT22;47004;51.366;12.348;2024-01-16T01:44:18;0.90;99.90
18191;DHT22;47004;51.366;12.348;2024-01-16T01:46:20;1.00;99.90
18191;DHT22;47004;51.366;12.348;2024-01-16T01:48:23;1.00;99.90
18191;DHT22;47004;51.366;12.348;2024-01-16T01:50:24;1.00;99.90
18191;DHT22;47004;51.366;12.348;2024-01-16T01:52:27;1.00;99.90
18191;DHT22;47004;51.366;12.348;2024-01-16T01:54:32;1.00;99.90
18191;DHT22;47004;51.366;12.348;2024-01-16T01:56:38;1.00;99.90
18191;DHT22;47004;51.366;12.348;2024-01-16T01:58:43;1.00;99.90
18191;DHT22;47004;51.366;12.348;2024-01-16T02:00:44;1.10;99.90
18191;DHT22;47004;51.366;12.348;2024-01-16T02:02:50;1.00;99.90
18191;DHT22;47004;51.366;12.348;2024-01-16T02:04:52;1.00;99.90
18191;DHT22;47004;51.366;12.348;2024-01-16T02:06:53;1.00;99.90
18191;DHT22;47004;51.366;12.348;2024-01-16T02:09:01;1.00;99.90
18191;DHT22;47004;51.366;12.348;2024-01-16T02:11:07;1.00;99.90
18191;DHT22;47004;51.366;12.348;2024-01-16T02:13:11;1.00;99.90
18191;DHT22;47004;51.366;12.348;2024-01-16T02:15:13;1.00;99.90
18191;DHT22;47004;51.366;12.348;2024-01-16T02:17:15;0.90;99.90
18191;DHT22;47004;51.366;12.348;2024-01-16T02:19:16;1.00;99.90
18191;DHT22;47004;51.366;12.348;2024-01-16T02:21:21;0.90;99.90
18191;DHT22;47004;51.366;12.348;2024-01-16T02:23:26;1.00;99.90
18191;DHT22;47004;51.366;12.348;2024-01-16T02:25:29;1.10;99.90
18191;DHT22;47004;51.366;12.348;2024-01-16T02:27:31;1.00;99.90
18191;DHT22;47004;51.366;12.348;2024-01-16T02:29:32;1.00;99.90
18191;DHT22;47004;51.366;12.348;2024-01-16T02:31:35;0.90;99.90
18191;DHT22;47004;51.366;12.348;2024-01-16T02:33:38;0.90;99.90
18191;DHT22;47004;51.366;12.348;2024-01-16T02:35:39;1.00;99.90
18191;DHT22;47004;51.366;12.348;2024-01-16T02:37:41;1.00;99.90
18191;DHT22;47004;51.366;12.348;2024-01-16T02:39:44;1.00;99.90
18191;DHT22;47004;51.366;12.348;2024-01-16T02:41:49;1.00;99.90
18191;DHT22;47004;51.366;12.348;2024-01-16T02:43:51;1.00;99.90
18191;DHT22;47004;51.366;12.348;2024-01-16T02:45:53;0.90;99.90
18191;DHT22;47004;51.366;12.348;2024-01-16T02:47:55;0.90;99.90
18191;DHT22;47004;51.366;12.348;2024-01-16T02:49:56;0.90;99.90
18191;DHT22;47004;51.366;12.348;2024-01-16T02:51:58;1.00;99.90
18191;DHT22;47004;51.366;12.348;2024-01-16T02:54:00;0.90;99.90
18191;DHT22;47004;51.366;12.348;2024-01-16T02:56:04;1.00;99.90
18191;DHT22;47004;51.366;12.348;2024-01-16T02:58:06;0.90;99.90
18191;DHT22;47004;51.366;12.348;2024-01-16T03:00:09;0.90;99.90
18191;DHT22;47004;51.366;12.348;2024-01-16T03:02:11;0.90;99.90
18191;DHT22;47004;51.366;12.348;2024-01-16T03:04:14;0.90;99.90
18191;DHT22;47004;51.366;12.348;2024-01-16T03:06:22;0.90;99.90
18191;DHT22;47004;51.366;12.348;2024-01-16T03:08:25;1.00;99.90
18191;DHT22;47004;51.366;12.348;2024-01-16T03:10:27;1.00;99.90
18191;DHT22;47004;51.366;12.348;2024-01-16T03:12:30;1.00;99.90
18191;DHT22;47004;51.366;12.348;2024-01-16T03:14:32;1.00;99.90
18191;DHT22;47004;51.366;12.348;2024-01-16T03:16:35;1.00;99.90
18191;DHT22;47004;51.366;12.348;2024-01-16T03:18:37;1.00;99.90
18191;DHT22;47004;51.366;12.348;2024-01-16T03:20:38;1.00;99.90
18191;DHT22;47004;51.366;12.348;2024-01-16T03:22:40;1.00;99.90
18191;DHT22;47004;51.366;12.348;2024-01-16T03:24:42;1.00;99.90
18191;DHT22;47004;51.366;12.348;2024-01-16T03:26:44;1.00;99.90
18191;DHT22;47004;51.366;12.348;2024-01-16T03:28:47;1.10;99.90
18191;DHT22;47004;51.366;12.348;2024-01-16T03:30:51;1.00;99.90
18191;DHT22;47004;51.366;12.348;2024-01-16T03:32:54;1.10;99.90
18191;DHT22;47004;51.366;12.348;2024-01-16T03:34:58;1.00;99.90
18191;DHT22;47004;51.366;12.348;2024-01-16T03:37:00;1.10;99.90
18191;DHT22;47004;51.366;12.348;2024-01-16T03:39:02;1.00;99.90
18191;DHT22;47004;51.366;12.348;2024-01-16T03:41:04;1.00;99.90
18191;DHT22;47004;51.366;12.348;2024-01-16T03:43:07;1.00;99.90
18191;DHT22;47004;51.366;12.348;2024-01-16T03:45:10;1.00;99.90
18191;DHT22;47004;51.366;12.348;2024-01-16T03:47:12;1.00;99.90
18191;DHT22;47004;51.366;12.348;2024-01-16T03:49:13;0.90;99.90
18191;DHT22;47004;51.366;12.348;2024-01-16T03:51:15;0.90;99.90
18191;DHT22;47004;51.366;12.348;2024-01-16T03:53:18;0.90;99.90
18191;DHT22;47004;51.366;12.348;2024-01-16T03:55:20;0.90;99.90
18191;DHT22;47004;51.366;12.348;2024-01-16T03:57:22;0.90;99.90
18191;DHT22;47004;51.366;12.348;2024-01-16T03:59:25;0.80;99.90
18191;DHT22;47004;51.366;12.348;2024-01-16T04:01:31;0.80;99.90
18191;DHT22;47004;51.366;12.348;2024-01-16T04:03:33;0.80;99.90
18191;DHT22;47004;51.366;12.348;2024-01-16T04:05:36;0.80;99.90
18191;DHT22;47004;51.366;12.348;2024-01-16T04:07:38;0.80;99.90
18191;DHT22;47004;51.366;12.348;2024-01-16T04:09:42;0.70;99.90
18191;DHT22;47004;51.366;12.348;2024-01-16T04:11:44;0.70;99.90
18191;DHT22;47004;51.366;12.348;2024-01-16T04:13:48;0.80;99.90
18191;DHT22;47004;51.366;12.348;2024-01-16T04:15:50;0.80;99.90
18191;DHT22;47004;51.366;12.348;2024-01-16T04:17:54;0.70;99.90
18191;DHT22;47004;51.366;12.348;2024-01-16T04:19:55;0.70;99.90
18191;DHT22;47004;51.366;12.348;2024-01-16T04:21:57;0.70;99.90
18191;DHT22;47004;51.366;12.348;2024-01-16T04:23:58;0.70;99.90
18191;DHT22;47004;51.366;12.348;2024-01-16T04:26:00;0.80;99.90
18191;DHT22;47004;51.366;12.348;2024-01-16T04:28:02;0.80;99.90
18191;DHT22;47004;51.366;12.348;2024-01-16T04:30:05;0.70;99.90
18191;DHT22;47004;51.366;12.348;2024-01-16T04:32:07;0.70;99.90
18191;DHT22;47004;51.366;12.348;2024-01-16T04:34:11;0.70;99.90
18191;DHT22;47004;51.366;12.348;2024-01-16T04:36:12;0.70;99.90
18191;DHT22;47004;51.366;12.348;2024-01-16T04:38:14;0.70;99.90
18191;DHT22;47004;51.366;12.348;2024-01-16T04:40:16;0.70;99.90
18191;DHT22;47004;51.366;12.348;2024-01-16T04:42:18;0.70;99.90
18191;DHT22;47004;51.366;12.348;2024-01-16T04:44:20;0.70;99.90
18191;DHT22;47004;51.366;12.348;2024-01-16T04:46:22;0.70;99.90
18191;DHT22;47004;51.366;12.348;2024-01-16T04:48:24;0.70;99.90
18191;DHT22;47004;51.366;12.348;2024-01-16T04:50:27;0.60;99.90
18191;DHT22;47004;51.366;12.348;2024-01-16T04:52:32;1.00;99.90
18191;DHT22;47004;51.366;12.348;2024-01-16T04:54:34;0.70;99.90
18191;DHT22;47004;51.366;12.348;2024-01-16T04:56:36;1.90;99.90
18191;DHT22;47004;51.366;12.348;2024-01-16T04:58:39;0.70;99.90
18191;DHT22;47004;51.366;12.348;2024-01-16T05:00:41;0.70;99.90
18191;DHT22;47004;51.366;12.348;2024-01-16T05:02:42;0.70;99.90
18191;DHT22;47004;51.366;12.348;2024-01-16T05:04:43;0.90;99.90
18191;DHT22;47004;51.366;12.348;2024-01-16T05:06:50;0.70;99.90
18191;DHT22;47004;51.366;12.348;2024-01-16T05:08:51;0.60;99.90
18191;DHT22;47004;51.366;12.348;2024-01-16T05:10:53;0.60;99.90
18191;DHT22;47004;51.366;12.348;2024-01-16T05:12:55;0.60;99.90
18191;DHT22;47004;51.366;12.348;2024-01-16T05:14:57;0.60;99.90
18191;DHT22;47004;51.366;12.348;2024-01-16T05:16:59;0.60;99.90
18191;DHT22;47004;51.366;12.348;2024-01-16T05:19:01;0.60;99.90
18191;DHT22;47004;51.366;12.348;2024-01-16T05:21:04;0.50;99.90
18191;DHT22;47004;51.366;12.348;2024-01-16T05:23:09;0.50;99.90
18191;DHT22;47004;51.366;12.348;2024-01-16T05:25:11;0.50;99.90
18191;DHT22;47004;51.366;12.348;2024-01-16T05:27:13;0.50;99.90
18191;DHT22;47004;51.366;12.348;2024-01-16T05:29:15;0.50;99.90
18191;DHT22;47004;51.366;12.348;2024-01-16T05:31:17;0.40;99.90
18191;DHT22;47004;51.366;12.348;2024-01-16T05:33:20;0.50;99.90
18191;DHT22;47004;51.366;12.348;2024-01-16T05:35:22;0.40;99.90
18191;DHT22;47004;51.366;12.348;2024-01-16T05:37:23;0.40;99.90
18191;DHT22;47004;51.366;12.348;2024-01-16T05:39:29;0.40;99.90
18191;DHT22;47004;51.366;12.348;2024-01-16T05:41:33;0.40;99.90
18191;DHT22;47004;51.366;12.348;2024-01-16T05:43:35;0.40;99.90
18191;DHT22;47004;51.366;12.348;2024-01-16T05:45:39;0.40;99.90
18191;DHT22;47004;51.366;12.348;2024-01-16T05:47:40;0.30;99.90
18191;DHT22;47004;51.366;12.348;2024-01-16T05:49:44;0.30;99.90
18191;DHT22;47004;51.366;12.348;2024-01-16T05:51:46;0.40;99.90
18191;DHT22;47004;51.366;12.348;2024-01-16T05:53:47;0.30;99.90
18191;DHT22;47004;51.366;12.348;2024-01-16T05:55:50;0.30;99.90
18191;DHT22;47004;51.366;12.348;2024-01-16T05:57:57;0.90;99.90
18191;DHT22;47004;51.366;12.348;2024-01-16T05:59:59;0.30;99.90
18191;DHT22;47004;51.366;12.348;2024-01-16T06:02:03;0.30;99.90
18191;DHT22;47004;51.366;12.348;2024-01-16T06:04:05;0.20;99.90
18191;DHT22;47004;51.366;12.348;2024-01-16T06:06:07;0.20;99.90
18191;DHT22;47004;51.366;12.348;2024-01-16T06:08:09;0.10;99.90
18191;DHT22;47004;51.366;12.348;2024-01-16T06:10:12;0.10;99.90
18191;DHT22;47004;51.366;12.348;2024-01-16T06:12:17;0.10;99.90
18191;DHT22;47004;51.366;12.348;2024-01-16T06:14:19;0.00;99.90
18191;DHT22;47004;51.366;12.348;2024-01-16T06:16:22;0.10;99.90
18191;DHT22;47004;51.366;12.348;2024-01-16T06:18:25;-0.10;99.90
18191;DHT22;47004;51.366;12.348;2024-01-16T06:20:27;-0.10;99.90
18191;DHT22;47004;51.366;12.348;2024-01-16T06:22:29;-0.10;99.90
18191;DHT22;47004;51.366;12.348;2024-01-16T06:24:31;-0.20;99.90
18191;DHT22;47004;51.366;12.348;2024-01-16T06:26:37;-0.20;99.90
18191;DHT22;47004;51.366;12.348;2024-01-16T06:28:41;-0.20;99.90
18191;DHT22;47004;51.366;12.348;2024-01-16T06:30:43;-0.20;99.90
18191;DHT22;47004;51.366;12.348;2024-01-16T06:32:45;-0.20;99.90
18191;DHT22;47004;51.366;12.348;2024-01-16T06:34:47;-0.20;99.90
18191;DHT22;47004;51.366;12.348;2024-01-16T06:36:49;-0.20;99.90
18191;DHT22;47004;51.366;12.348;2024-01-16T06:38:51;-0.20;99.90
18191;DHT22;47004;51.366;12.348;2024-01-16T06:40:53;0.30;99.90
18191;DHT22;47004;51.366;12.348;2024-01-16T06:42:55;-0.20;99.90
18191;DHT22;47004;51.366;12.348;2024-01-16T06:44:57;-0.20;99.90
18191;DHT22;47004;51.366;12.348;2024-01-16T06:46:59;-0.30;99.90
18191;DHT22;47004;51.366;12.348;2024-01-16T06:49:01;-0.20;99.90
18191;DHT22;47004;51.366;12.348;2024-01-16T06:51:03;-0.20;99.90
18191;DHT22;47004;51.366;12.348;2024-01-16T06:53:05;-0.30;99.90
18191;DHT22;47004;51.366;12.348;2024-01-16T06:55:07;-0.20;99.90
18191;DHT22;47004;51.366;12.348;2024-01-16T06:57:09;-0.30;99.90
18191;DHT22;47004;51.366;12.348;2024-01-16T06:59:12;-0.30;99.90
18191;DHT22;47004;51.366;12.348;2024-01-16T07:01:16;-0.40;99.90
18191;DHT22;47004;51.366;12.348;2024-01-16T07:03:18;-0.40;99.90
18191;DHT22;47004;51.366;12.348;2024-01-16T07:05:21;-0.50;99.90
18191;DHT22;47004;51.366;12.348;2024-01-16T07:07:23;-0.50;99.90
18191;DHT22;47004;51.366;12.348;2024-01-16T07:09:25;-0.50;99.90
18191;DHT22;47004;51.366;12.348;2024-01-16T07:11:27;-0.50;99.90
18191;DHT22;47004;51.366;12.348;2024-01-16T07:13:29;-0.60;99.90
18191;DHT22;47004;51.366;12.348;2024-01-16T07:15:31;-0.60;99.90
18191;DHT22;47004;51.366;12.348;2024-01-16T07:17:34;-0.50;99.90
18191;DHT22;47004;51.366;12.348;2024-01-16T07:19:36;-0.10;99.90
18191;DHT22;47004;51.366;12.348;2024-01-16T07:21:39;-0.50;99.90
18191;DHT22;47004;51.366;12.348;2024-01-16T07:23:41;-0.50;99.90
18191;DHT22;47004;51.366;12.348;2024-01-16T07:25:43;-0.60;99.90
18191;DHT22;47004;51.366;12.348;2024-01-16T07:27:45;-0.60;99.90
18191;DHT22;47004;51.366;12.348;2024-01-16T07:29:49;-0.60;99.90
18191;DHT22;47004;51.366;12.348;2024-01-16T07:31:51;-0.60;99.90
18191;DHT22;47004;51.366;12.348;2024-01-16T07:33:55;-0.60;99.90
18191;DHT22;47004;51.366;12.348;2024-01-16T07:35:57;-0.70;99.90
18191;DHT22;47004;51.366;12.348;2024-01-16T07:38:00;-0.70;99.90
18191;DHT22;47004;51.366;12.348;2024-01-16T07:40:02;-0.70;99.90
18191;DHT22;47004;51.366;12.348;2024-01-16T07:42:06;-0.70;99.90
18191;DHT22;47004;51.366;12.348;2024-01-16T07:44:08;-0.70;99.90
18191;DHT22;47004;51.366;12.348;2024-01-16T07:46:11;-0.70;99.90
18191;DHT22;47004;51.366;12.348;2024-01-16T07:48:13;-0.70;99.90
18191;DHT22;47004;51.366;12.348;2024-01-16T07:50:18;-0.10;99.90
18191;DHT22;47004;51.366;12.348;2024-01-16T07:52:20;-0.80;99.90
18191;DHT22;47004;51.366;12.348;2024-01-16T07:54:22;-0.80;99.90
18191;DHT22;47004;51.366;12.348;2024-01-16T07:56:24;-1.00;99.90
18191;DHT22;47004;51.366;12.348;2024-01-16T07:58:26;-0.80;99.90
18191;DHT22;47004;51.366;12.348;2024-01-16T08:00:29;-0.70;99.90
18191;DHT22;47004;51.366;12.348;2024-01-16T08:02:32;-0.80;99.90
18191;DHT22;47004;51.366;12.348;2024-01-16T08:04:34;-0.40;99.90
18191;DHT22;47004;51.366;12.348;2024-01-16T08:06:38;-0.80;99.90
18191;DHT22;47004;51.366;12.348;2024-01-16T08:08:40;-0.80;99.90
18191;DHT22;47004;51.366;12.348;2024-01-16T08:10:42;-0.80;99.90
18191;DHT22;47004;51.366;12.348;2024-01-16T08:12:44;-0.80;99.90
18191;DHT22;47004;51.366;12.348;2024-01-16T08:14:46;-0.70;99.90
18191;DHT22;47004;51.366;12.348;2024-01-16T08:16:47;-0.80;99.90
18191;DHT22;47004;51.366;12.348;2024-01-16T08:18:49;-0.80;99.90
18191;DHT22;47004;51.366;12.348;2024-01-16T08:20:51;-0.80;99.90
18191;DHT22;47004;51.366;12.348;2024-01-16T08:22:55;-0.70;99.90
18191;DHT22;47004;51.366;12.348;2024-01-16T08:24:56;-0.70;99.90
18191;DHT22;47004;51.366;12.348;2024-01-16T08:26:57;-0.70;99.90
18191;DHT22;47004;51.366;12.348;2024-01-16T08:28:59;-0.60;99.90
18191;DHT22;47004;51.366;12.348;2024-01-16T08:31:01;-0.60;99.90
18191;DHT22;47004;51.366;12.348;2024-01-16T08:33:03;-0.60;99.90
18191;DHT22;47004;51.366;12.348;2024-01-16T08:35:06;-0.60;99.90
18191;DHT22;47004;51.366;12.348;2024-01-16T08:37:07;-0.50;99.90
18191;DHT22;47004;51.366;12.348;2024-01-16T08:39:11;-0.50;99.90
18191;DHT22;47004;51.366;12.348;2024-01-16T08:41:14;-0.40;99.90
18191;DHT22;47004;51.366;12.348;2024-01-16T08:43:16;-0.30;99.90
18191;DHT22;47004;51.366;12.348;2024-01-16T08:45:18;-0.30;99.90
18191;DHT22;47004;51.366;12.348;2024-01-16T08:47:20;-0.20;99.90
18191;DHT22;47004;51.366;12.348;2024-01-16T08:49:21;-0.20;99.90
18191;DHT22;47004;51.366;12.348;2024-01-16T08:51:23;-0.10;99.90
18191;DHT22;47004;51.366;12.348;2024-01-16T08:53:26;0.00;99.90
18191;DHT22;47004;51.366;12.348;2024-01-16T08:55:30;0.00;99.90
18191;DHT22;47004;51.366;12.348;2024-01-16T08:57:32;0.10;99.90
18191;DHT22;47004;51.366;12.348;2024-01-16T08:59:34;0.20;99.90
18191;DHT22;47004;51.366;12.348;2024-01-16T09:01:35;0.20;99.90
18191;DHT22;47004;51.366;12.348;2024-01-16T09:03:37;0.30;99.90
18191;DHT22;47004;51.366;12.348;2024-01-16T09:05:38;0.30;99.90
18191;DHT22;47004;51.366;12.348;2024-01-16T09:07:41;0.30;99.90
18191;DHT22;47004;51.366;12.348;2024-01-16T09:09:43;0.40;99.90
18191;DHT22;47004;51.366;12.348;2024-01-16T09:11:46;0.40;99.90
18191;DHT22;47004;51.366;12.348;2024-01-16T09:13:48;0.50;99.90
18191;DHT22;47004;51.366;12.348;2024-01-16T09:15:50;0.60;99.90
18191;DHT22;47004;51.366;12.348;2024-01-16T09:17:53;0.60;99.90
18191;DHT22;47004;51.366;12.348;2024-01-16T09:19:54;0.70;99.90
18191;DHT22;47004;51.366;12.348;2024-01-16T09:21:56;0.60;99.90
18191;DHT22;47004;51.366;12.348;2024-01-16T09:23:58;0.70;99.90
18191;DHT22;47004;51.366;12.348;2024-01-16T09:26:00;0.70;99.90
18191;DHT22;47004;51.366;12.348;2024-01-16T09:28:04;0.70;99.90
18191;DHT22;47004;51.366;12.348;2024-01-16T09:30:08;0.70;99.90
18191;DHT22;47004;51.366;12.348;2024-01-16T09:32:10;0.70;99.90
18191;DHT22;47004;51.366;12.348;2024-01-16T09:34:12;0.80;99.90
18191;DHT22;47004;51.366;12.348;2024-01-16T09:36:13;0.80;99.90
18191;DHT22;47004;51.366;12.348;2024-01-16T09:38:16;0.90;99.90
18191;DHT22;47004;51.366;12.348;2024-01-16T09:40:17;0.90;99.90
18191;DHT22;47004;51.366;12.348;2024-01-16T09:42:19;0.90;99.90
18191;DHT22;47004;51.366;12.348;2024-01-16T09:44:23;0.90;99.90
18191;DHT22;47004;51.366;12.348;2024-01-16T09:46:26;1.00;99.90
18191;DHT22;47004;51.366;12.348;2024-01-16T09:48:29;1.00;99.90
18191;DHT22;47004;51.366;12.348;2024-01-16T09:50:32;1.00;99.90
18191;DHT22;47004;51.366;12.348;2024-01-16T09:52:34;1.10;99.90
18191;DHT22;47004;51.366;12.348;2024-01-16T09:54:35;1.10;99.90
18191;DHT22;47004;51.366;12.348;2024-01-16T09:56:42;1.20;99.90
18191;DHT22;47004;51.366;12.348;2024-01-16T09:58:48;1.20;99.90
18191;DHT22;47004;51.366;12.348;2024-01-16T10:00:52;1.20;99.90
18191;DHT22;47004;51.366;12.348;2024-01-16T10:02:54;1.20;99.90
18191;DHT22;47004;51.366;12.348;2024-01-16T10:04:59;1.20;99.90
18191;DHT22;47004;51.366;12.348;2024-01-16T10:07:02;1.20;99.90
18191;DHT22;47004;51.366;12.348;2024-01-16T10:09:05;1.30;99.90
18191;DHT22;47004;51.366;12.348;2024-01-16T10:11:07;1.30;99.90
18191;DHT22;47004;51.366;12.348;2024-01-16T10:13:10;1.30;99.90
18191;DHT22;47004;51.366;12.348;2024-01-16T10:15:14;1.30;99.90
18191;DHT22;47004;51.366;12.348;2024-01-16T10:17:18;1.30;99.90
18191;DHT22;47004;51.366;12.348;2024-01-16T10:19:20;1.30;99.90
18191;DHT22;47004;51.366;12.348;2024-01-16T10:21:24;1.30;99.90
18191;DHT22;47004;51.366;12.348;2024-01-16T10:23:31;1.40;99.90
18191;DHT22;47004;51.366;12.348;2024-01-16T10:25:33;1.40;99.90
18191;DHT22;47004;51.366;12.348;2024-01-16T10:27:39;1.40;99.90
18191;DHT22;47004;51.366;12.348;2024-01-16T10:29:54;1.50;99.90
18191;DHT22;47004;51.366;12.348;2024-01-16T10:31:57;1.50;99.90
18191;DHT22;47004;51.366;12.348;2024-01-16T10:34:01;1.50;99.90
18191;DHT22;47004;51.366;12.348;2024-01-16T10:36:11;1.60;99.90
18191;DHT22;47004;51.366;12.348;2024-01-16T10:38:20;1.60;99.90
18191;DHT22;47004;51.366;12.348;2024-01-16T10:40:24;1.60;99.90
18191;DHT22;47004;51.366;12.348;2024-01-16T10:42:27;1.70;99.90
18191;DHT22;47004;51.366;12.348;2024-01-16T10:44:30;1.60;99.90
18191;DHT22;47004;51.366;12.348;2024-01-16T10:46:33;1.60;99.90
18191;DHT22;47004;51.366;12.348;2024-01-16T10:48:35;1.60;99.90
18191;DHT22;47004;51.366;12.348;2024-01-16T10:50:40;1.90;99.90
18191;DHT22;47004;51.366;12.348;2024-01-16T10:52:47;1.60;99.90
18191;DHT22;47004;51.366;12.348;2024-01-16T10:54:49;1.60;99.90
18191;DHT22;47004;51.366;12.348;2024-01-16T10:56:51;1.60;99.90
18191;DHT22;47004;51.366;12.348;2024-01-16T10:59:00;1.60;99.90
18191;DHT22;47004;51.366;12.348;2024-01-16T11:01:10;1.60;99.90
18191;DHT22;47004;51.366;12.348;2024-01-16T11:03:16;1.60;99.90
18191;DHT22;47004;51.366;12.348;2024-01-16T11:05:20;1.60;99.90
18191;DHT22;47004;51.366;12.348;2024-01-16T11:07:24;1.60;99.90
18191;DHT22;47004;51.366;12.348;2024-01-16T11:09:28;1.60;99.90
18191;DHT22;47004;51.366;12.348;2024-01-16T11:11:30;1.80;99.90
18191;DHT22;47004;51.366;12.348;2024-01-16T11:13:36;1.60;99.90
18191;DHT22;47004;51.366;12.348;2024-01-16T11:15:38;1.60;99.90
18191;DHT22;47004;51.366;12.348;2024-01-16T11:17:44;1.60;99.90
18191;DHT22;47004;51.366;12.348;2024-01-16T11:19:47;1.70;99.90
18191;DHT22;47004;51.366;12.348;2024-01-16T11:21:49;1.70;99.90
18191;DHT22;47004;51.366;12.348;2024-01-16T11:23:52;1.70;99.90
18191;DHT22;47004;51.366;12.348;2024-01-16T11:25:54;1.70;99.90
18191;DHT22;47004;51.366;12.348;2024-01-16T11:28:07;1.70;99.90
18191;DHT22;47004;51.366;12.348;2024-01-16T11:30:11;1.70;99.90
18191;DHT22;47004;51.366;12.348;2024-01-16T11:32:33;1.70;99.90
18191;DHT22;47004;51.366;12.348;2024-01-16T11:34:53;1.70;99.90
18191;DHT22;47004;51.366;12.348;2024-01-16T11:36:56;1.80;99.90
18191;DHT22;47004;51.366;12.348;2024-01-16T11:39:00;1.80;99.90
18191;DHT22;47004;51.366;12.348;2024-01-16T11:41:00;1.80;99.90
18191;DHT22;47004;51.366;12.348;2024-01-16T11:43:36;1.90;99.90
18191;DHT22;47004;51.366;12.348;2024-01-16T11:45:51;1.80;99.90
18191;DHT22;47004;51.366;12.348;2024-01-16T11:48:08;1.80;99.90
18191;DHT22;47004;51.366;12.348;2024-01-16T11:50:13;1.90;99.90
18191;DHT22;47004;51.366;12.348;2024-01-16T11:52:44;1.80;99.90
18191;DHT22;47004;51.366;12.348;2024-01-16T11:54:47;1.80;99.90
18191;DHT22;47004;51.366;12.348;2024-01-16T11:57:33;1.90;99.90
18191;DHT22;47004;51.366;12.348;2024-01-16T11:59:50;1.80;99.90
18191;DHT22;47004;51.366;12.348;2024-01-16T12:01:58;1.80;99.90
18191;DHT22;47004;51.366;12.348;2024-01-16T12:04:05;1.80;99.90
18191;DHT22;47004;51.366;12.348;2024-01-16T12:06:07;1.90;99.90
18191;DHT22;47004;51.366;12.348;2024-01-16T12:08:09;1.90;99.90
18191;DHT22;47004;51.366;12.348;2024-01-16T12:10:13;1.90;99.90
18191;DHT22;47004;51.366;12.348;2024-01-16T12:12:15;1.90;99.90
18191;DHT22;47004;51.366;12.348;2024-01-16T12:14:18;1.90;99.90
18191;DHT22;47004;51.366;12.348;2024-01-16T12:16:20;1.90;99.90
18191;DHT22;47004;51.366;12.348;2024-01-16T12:18:23;1.90;99.90
18191;DHT22;47004;51.366;12.348;2024-01-16T12:20:26;1.90;99.90
18191;DHT22;47004;51.366;12.348;2024-01-16T12:22:28;2.00;99.90
18191;DHT22;47004;51.366;12.348;2024-01-16T12:24:33;2.30;99.90
18191;DHT22;47004;51.366;12.348;2024-01-16T12:26:36;2.00;99.90
18191;DHT22;47004;51.366;12.348;2024-01-16T12:28:39;1.90;99.90
18191;DHT22;47004;51.366;12.348;2024-01-16T12:30:49;2.00;99.90
18191;DHT22;47004;51.366;12.348;2024-01-16T12:32:52;2.00;99.90
18191;DHT22;47004;51.366;12.348;2024-01-16T12:34:54;1.90;99.90
18191;DHT22;47004;51.366;12.348;2024-01-16T12:37:04;2.00;99.90
18191;DHT22;47004;51.366;12.348;2024-01-16T12:39:06;2.00;99.90
18191;DHT22;47004;51.366;12.348;2024-01-16T12:41:12;1.90;99.90
18191;DHT22;47004;51.366;12.348;2024-01-16T12:43:18;1.90;99.90
18191;DHT22;47004;51.366;12.348;2024-01-16T12:45:21;2.00;99.90
18191;DHT22;47004;51.366;12.348;2024-01-16T12:47:22;2.00;99.90
18191;DHT22;47004;51.366;12.348;2024-01-16T12:49:24;2.00;99.90
18191;DHT22;47004;51.366;12.348;2024-01-16T12:51:26;2.10;99.90
18191;DHT22;47004;51.366;12.348;2024-01-16T12:53:28;2.00;99.90
18191;DHT22;47004;51.366;12.348;2024-01-16T12:55:33;2.00;99.90